Kings Bay, Georgia
Current Conditions -  °F | °C
As of 11:35 AM on Saturday 25 Oct 2014 (Local Time) from KFHB Reporting Station
Clear Clear  
Wind Chill: 75°   Ceiling: Unl
Heat Index: 75°   Visibility: 10mi
Dew Point: 54°   Wind: 7mph
Humidity: 47%   Direction: 330°NNW
Pressure: 30.01"   Gusts: NA
Location:  30.77°N, 81.68°W
Report Text: KFHB 251535Z AUTO 33006KT 10SM CLR 24/12 A3001 RMK AO1
Loading
Personal Weather Stations






























Interactive Weather Map
Tropical Storm Tracking
New forecast layout! Learn more

10-Day Weather Forecast

Advertisements
Track Severe Weather on mobile